createdAt,value
2017-08-26T00:00:25.053Z,20.90
2017-08-26T00:03:07.948Z,20.90
2017-08-26T00:05:37.066Z,20.80
2017-08-26T00:08:05.426Z,20.80
2017-08-26T00:10:33.787Z,20.80
2017-08-26T00:13:02.393Z,20.80
2017-08-26T00:15:30.754Z,20.70
2017-08-26T00:17:59.126Z,20.80
2017-08-26T00:20:27.605Z,20.70
2017-08-26T00:22:55.946Z,20.60
2017-08-26T00:25:24.302Z,20.60
2017-08-26T00:27:52.665Z,20.50
2017-08-26T00:30:21.032Z,20.50
2017-08-26T00:32:49.407Z,20.50
2017-08-26T00:35:17.767Z,20.40
2017-08-26T00:37:46.145Z,20.40
2017-08-26T00:40:14.764Z,20.40
2017-08-26T00:42:43.375Z,20.30
2017-08-26T00:45:11.753Z,20.30
2017-08-26T00:47:40.114Z,20.20
2017-08-26T00:50:08.478Z,20.20
2017-08-26T00:52:36.837Z,20.20
2017-08-26T00:55:05.204Z,20.20
2017-08-26T00:57:33.553Z,20.20
2017-08-26T01:00:01.927Z,20.20
2017-08-26T01:02:30.300Z,20.20
2017-08-26T01:04:58.415Z,20.20
2017-08-26T01:07:31.602Z,20.20
2017-08-26T01:09:59.991Z,20.20
2017-08-26T01:12:28.358Z,20.20
2017-08-26T01:14:56.719Z,20.30
2017-08-26T01:17:25.090Z,20.30
2017-08-26T01:19:53.451Z,20.30
2017-08-26T01:22:21.815Z,20.40
2017-08-26T01:24:50.187Z,20.40
2017-08-26T01:27:18.664Z,20.40
2017-08-26T01:29:47.019Z,20.30
2017-08-26T01:32:16.144Z,20.20
2017-08-26T01:34:44.712Z,20.20
2017-08-26T01:37:14.691Z,20.20
2017-08-26T01:39:43.815Z,20.20
2017-08-26T01:42:12.171Z,20.20
2017-08-26T01:44:40.517Z,20.20
2017-08-26T01:47:08.878Z,20.20
2017-08-26T01:49:37.237Z,20.10
2017-08-26T01:52:05.804Z,20.10
2017-08-26T01:54:34.149Z,20.10
2017-08-26T01:57:02.654Z,20.10
2017-08-26T01:59:31.762Z,20.00
2017-08-26T02:02:00.363Z,19.90
2017-08-26T02:04:28.717Z,20.00
2017-08-26T02:06:57.091Z,19.90
2017-08-26T02:09:25.662Z,19.90
2017-08-26T02:11:54.034Z,19.80
2017-08-26T02:14:22.377Z,19.80
2017-08-26T02:16:51.518Z,19.80
2017-08-26T02:19:19.894Z,19.80
2017-08-26T02:21:48.263Z,19.90
2017-08-26T02:24:16.837Z,19.90
2017-08-26T02:26:45.191Z,19.90
2017-08-26T02:29:13.547Z,19.90
2017-08-26T02:31:41.898Z,20.00
2017-08-26T02:34:10.338Z,20.00
2017-08-26T02:36:38.713Z,20.00
2017-08-26T02:39:07.078Z,20.00
2017-08-26T02:41:35.445Z,20.10
2017-08-26T02:44:03.821Z,20.00
2017-08-26T02:46:32.218Z,20.10
2017-08-26T02:49:00.562Z,20.10
2017-08-26T02:51:28.959Z,20.10
2017-08-26T02:53:57.324Z,20.10
2017-08-26T02:56:25.719Z,20.00
2017-08-26T02:58:54.095Z,20.10
2017-08-26T03:01:22.447Z,20.00
2017-08-26T03:03:50.809Z,20.00
2017-08-26T03:06:19.222Z,20.00
2017-08-26T03:08:47.574Z,20.00
2017-08-26T03:11:16.899Z,19.90
2017-08-26T03:13:45.277Z,19.90
2017-08-26T03:16:13.631Z,19.90
2017-08-26T03:18:41.981Z,19.90
2017-08-26T03:21:10.339Z,19.80
2017-08-26T03:23:38.775Z,19.80
2017-08-26T03:26:07.153Z,19.70
2017-08-26T03:28:35.534Z,19.70
2017-08-26T03:31:03.901Z,19.70
2017-08-26T03:33:32.278Z,19.80
2017-08-26T03:36:00.879Z,19.70
2017-08-26T03:38:29.338Z,19.70
2017-08-26T03:40:57.711Z,19.70
2017-08-26T03:43:26.057Z,19.70
2017-08-26T03:45:55.386Z,19.70
2017-08-26T03:48:23.809Z,19.70
2017-08-26T03:50:52.186Z,19.70
2017-08-26T03:53:20.819Z,19.70
2017-08-26T03:55:49.173Z,19.70
2017-08-26T03:58:17.572Z,19.70
2017-08-26T04:00:46.011Z,19.70
2017-08-26T04:03:14.422Z,19.70
2017-08-26T04:05:42.801Z,19.70
2017-08-26T04:08:11.174Z,19.70
2017-08-26T04:10:39.516Z,19.70
2017-08-26T04:13:07.886Z,19.70
2017-08-26T04:15:36.064Z,19.70
2017-08-26T04:18:04.425Z,19.70
2017-08-26T04:20:32.797Z,19.60
2017-08-26T04:23:01.333Z,19.60
2017-08-26T04:25:29.678Z,19.60
2017-08-26T04:27:58.026Z,19.60
2017-08-26T04:30:26.382Z,19.50
2017-08-26T04:32:54.737Z,19.60
2017-08-26T04:35:23.099Z,19.50
2017-08-26T04:37:51.449Z,19.50
2017-08-26T04:40:19.961Z,19.50
2017-08-26T04:42:48.335Z,19.60
2017-08-26T04:45:16.711Z,19.60
2017-08-26T04:47:45.147Z,19.60
2017-08-26T04:50:14.270Z,19.60
2017-08-26T04:52:42.632Z,19.60
2017-08-26T04:55:11.005Z,19.60
2017-08-26T04:57:39.509Z,19.70
2017-08-26T05:00:07.889Z,19.70
2017-08-26T05:02:36.363Z,19.80
2017-08-26T05:05:04.718Z,19.90
2017-08-26T05:07:33.066Z,19.90
2017-08-26T05:10:01.432Z,19.90
2017-08-26T05:12:30.074Z,19.90
2017-08-26T05:14:58.460Z,20.00
2017-08-26T05:17:26.810Z,20.00
2017-08-26T05:19:55.174Z,20.00
2017-08-26T05:22:23.541Z,20.00
2017-08-26T05:24:51.907Z,20.10
2017-08-26T05:27:20.307Z,20.10
2017-08-26T05:29:48.678Z,20.10
2017-08-26T05:32:16.853Z,20.10
2017-08-26T05:34:45.201Z,20.10
2017-08-26T05:37:13.788Z,20.20
2017-08-26T05:39:42.147Z,20.30
2017-08-26T05:42:10.510Z,20.30
2017-08-26T05:44:38.957Z,20.40
2017-08-26T05:47:07.310Z,20.40
2017-08-26T05:49:35.809Z,20.50
2017-08-26T05:52:04.084Z,20.60
2017-08-26T05:54:32.426Z,20.60
2017-08-26T05:57:00.939Z,20.70
2017-08-26T05:59:29.295Z,20.70
2017-08-26T06:01:57.586Z,20.70
2017-08-26T06:04:25.934Z,20.80
2017-08-26T06:06:54.706Z,20.90
2017-08-26T06:09:23.074Z,20.90
2017-08-26T06:11:51.444Z,20.90
2017-08-26T06:14:19.803Z,20.90
2017-08-26T06:16:48.154Z,20.90
2017-08-26T06:19:16.672Z,21.00
2017-08-26T06:21:45.206Z,21.10
2017-08-26T06:24:13.649Z,21.20
2017-08-26T06:26:42.062Z,21.30
2017-08-26T06:29:10.438Z,21.30
2017-08-26T06:31:38.802Z,21.30
2017-08-26T06:34:07.170Z,21.30
2017-08-26T06:36:35.565Z,21.40
2017-08-26T06:39:03.390Z,21.50
2017-08-26T06:41:31.905Z,21.50
2017-08-26T06:44:00.283Z,21.50
2017-08-26T06:46:28.665Z,21.60
2017-08-26T06:48:57.032Z,21.60
2017-08-26T06:51:25.622Z,21.60
2017-08-26T06:53:54.091Z,21.80
2017-08-26T06:56:22.467Z,21.90
2017-08-26T06:58:50.823Z,22.00
2017-08-26T07:01:19.273Z,22.20
2017-08-26T07:03:47.661Z,22.40
2017-08-26T07:06:16.022Z,22.50
2017-08-26T07:08:44.449Z,22.40
2017-08-26T07:11:12.824Z,22.40
2017-08-26T07:13:41.201Z,22.30
2017-08-26T07:16:09.779Z,22.30
2017-08-26T07:18:38.134Z,22.40
2017-08-26T07:21:06.533Z,22.40
2017-08-26T07:23:35.010Z,22.50
2017-08-26T07:26:03.404Z,22.70
2017-08-26T07:28:31.766Z,22.90
2017-08-26T07:31:00.128Z,23.10
2017-08-26T07:33:28.478Z,22.90
2017-08-26T07:35:56.838Z,22.90
2017-08-26T07:38:25.205Z,22.80
2017-08-26T07:40:53.560Z,22.80
2017-08-26T07:43:21.929Z,22.80
2017-08-26T07:45:50.308Z,22.80
2017-08-26T07:48:18.668Z,22.80
2017-08-26T07:50:47.158Z,22.70
2017-08-26T07:53:15.522Z,22.70
2017-08-26T07:55:43.886Z,22.80
2017-08-26T07:58:12.466Z,22.90
2017-08-26T08:00:40.827Z,23.00
2017-08-26T08:03:09.192Z,23.00
2017-08-26T08:05:38.450Z,23.10
2017-08-26T08:08:06.828Z,23.00
2017-08-26T08:10:35.181Z,23.20
2017-08-26T08:13:03.655Z,23.30
2017-08-26T08:15:32.337Z,23.40
2017-08-26T08:18:00.815Z,23.40
2017-08-26T08:20:29.165Z,23.30
2017-08-26T08:22:57.527Z,23.40
2017-08-26T08:25:25.905Z,23.40
2017-08-26T08:27:54.263Z,23.40
2017-08-26T08:30:22.623Z,23.40
2017-08-26T08:32:51.007Z,23.50
2017-08-26T08:35:19.385Z,23.50
2017-08-26T08:37:47.746Z,23.60
2017-08-26T08:40:16.107Z,23.80
2017-08-26T08:42:44.529Z,24.10
2017-08-26T08:45:12.897Z,24.30
2017-08-26T08:47:41.254Z,24.50
2017-08-26T08:50:09.815Z,24.50
2017-08-26T08:52:38.277Z,24.50
2017-08-26T08:55:06.640Z,24.40
2017-08-26T08:57:35.012Z,24.40
2017-08-26T09:00:03.374Z,24.50
2017-08-26T09:02:31.745Z,24.40
2017-08-26T09:05:00.114Z,24.50
2017-08-26T09:07:28.775Z,24.60
2017-08-26T09:09:57.405Z,24.50
2017-08-26T09:12:25.767Z,24.50
2017-08-26T09:14:54.170Z,24.60
2017-08-26T09:17:22.523Z,24.80
2017-08-26T09:19:50.890Z,24.80
2017-08-26T09:22:19.064Z,24.60
2017-08-26T09:24:47.426Z,24.50
2017-08-26T09:27:15.785Z,24.40
2017-08-26T09:29:44.323Z,24.50
2017-08-26T09:32:12.681Z,24.60
2017-08-26T09:34:41.220Z,24.80
2017-08-26T09:37:09.694Z,24.80
2017-08-26T09:39:38.047Z,24.80
2017-08-26T09:42:06.511Z,24.80
2017-08-26T09:44:35.106Z,24.90
2017-08-26T09:47:03.774Z,25.00
2017-08-26T09:49:31.931Z,25.10
2017-08-26T09:52:00.300Z,25.10
2017-08-26T09:54:29.007Z,25.10
2017-08-26T09:56:57.384Z,25.20
2017-08-26T09:59:25.826Z,25.20
2017-08-26T10:01:54.176Z,25.10
2017-08-26T10:04:22.582Z,25.30
2017-08-26T10:06:50.962Z,25.40
2017-08-26T10:09:19.328Z,25.40
2017-08-26T10:11:47.735Z,25.40
2017-08-26T10:14:16.110Z,25.50
2017-08-26T10:16:44.475Z,25.50
2017-08-26T10:19:12.846Z,25.40
2017-08-26T10:21:41.236Z,25.40
2017-08-26T10:24:09.607Z,25.50
2017-08-26T10:26:37.969Z,25.60
2017-08-26T10:29:06.323Z,25.60
2017-08-26T10:31:34.509Z,25.70
2017-08-26T10:34:02.874Z,25.70
2017-08-26T10:36:31.043Z,25.60
2017-08-26T10:38:59.325Z,25.70
2017-08-26T10:41:27.516Z,25.70
2017-08-26T10:43:55.778Z,25.50
2017-08-26T10:46:23.960Z,25.40
2017-08-26T10:48:52.120Z,25.60
2017-08-26T10:51:20.299Z,25.80
2017-08-26T10:53:48.681Z,25.80
2017-08-26T10:56:17.039Z,25.80
2017-08-26T10:58:45.398Z,25.80
2017-08-26T11:01:13.766Z,25.90
2017-08-26T11:03:42.126Z,25.80
2017-08-26T11:06:10.490Z,25.80
2017-08-26T11:08:38.850Z,25.90
2017-08-26T11:11:07.421Z,25.90
2017-08-26T11:13:36.464Z,25.90
2017-08-26T11:16:05.037Z,26.00
2017-08-26T11:18:33.395Z,26.00
2017-08-26T11:21:01.754Z,26.20
2017-08-26T11:23:30.221Z,26.40
2017-08-26T11:25:58.824Z,26.50
2017-08-26T11:28:27.189Z,26.40
2017-08-26T11:30:55.554Z,26.50
2017-08-26T11:33:23.918Z,26.50
2017-08-26T11:35:52.281Z,26.40
2017-08-26T11:38:20.647Z,26.30
2017-08-26T11:40:49.011Z,26.30
2017-08-26T11:43:17.377Z,26.40
2017-08-26T11:45:45.734Z,26.50
2017-08-26T11:48:14.107Z,26.60
2017-08-26T11:50:42.457Z,26.70
2017-08-26T11:53:10.996Z,26.30
2017-08-26T11:55:39.413Z,26.50
2017-08-26T11:58:07.769Z,26.50
2017-08-26T12:00:36.139Z,26.50
2017-08-26T12:03:04.520Z,26.60
2017-08-26T12:05:32.866Z,26.70
2017-08-26T12:08:01.221Z,26.70
2017-08-26T12:10:30.352Z,26.50
2017-08-26T12:12:58.722Z,26.30
2017-08-26T12:15:27.077Z,26.10
2017-08-26T12:17:55.471Z,25.90
2017-08-26T12:20:24.095Z,25.90
2017-08-26T12:22:52.441Z,26.00
2017-08-26T12:25:20.830Z,26.20
2017-08-26T12:27:49.217Z,26.40
2017-08-26T12:30:17.658Z,26.60
2017-08-26T12:32:46.022Z,26.70
2017-08-26T12:35:14.456Z,26.90
2017-08-26T12:37:42.808Z,27.10
2017-08-26T12:40:11.170Z,27.20
2017-08-26T12:42:39.543Z,27.20
2017-08-26T12:45:07.932Z,27.10
2017-08-26T12:47:36.325Z,27.30
2017-08-26T12:50:04.678Z,27.50
2017-08-26T12:52:33.812Z,27.30
2017-08-26T12:55:02.170Z,27.30
2017-08-26T12:57:30.530Z,27.10
2017-08-26T12:59:59.654Z,27.00
2017-08-26T13:02:28.017Z,27.00
2017-08-26T13:04:56.598Z,27.10
2017-08-26T13:07:25.073Z,27.10
2017-08-26T13:09:53.448Z,27.00
2017-08-26T13:12:21.897Z,27.20
2017-08-26T13:14:50.253Z,27.40
2017-08-26T13:17:18.628Z,27.60
2017-08-26T13:19:46.987Z,27.70
2017-08-26T13:22:15.346Z,27.80
2017-08-26T13:24:44.070Z,27.70
2017-08-26T13:27:12.426Z,27.70
2017-08-26T13:29:41.009Z,27.60
2017-08-26T13:32:09.371Z,27.60
2017-08-26T13:34:37.755Z,27.60
2017-08-26T13:37:06.107Z,27.80
2017-08-26T13:39:34.469Z,27.70
2017-08-26T13:42:03.603Z,27.90
2017-08-26T13:44:31.967Z,27.90
2017-08-26T13:47:00.338Z,27.90
2017-08-26T13:49:28.689Z,28.10
2017-08-26T13:51:56.708Z,28.10
2017-08-26T13:54:25.152Z,27.90
2017-08-26T13:56:53.752Z,27.80
2017-08-26T13:59:22.113Z,27.80
2017-08-26T14:01:50.472Z,27.90
2017-08-26T14:04:18.839Z,28.00
2017-08-26T14:06:47.216Z,28.10
2017-08-26T14:09:15.571Z,28.20
2017-08-26T14:11:43.943Z,28.20
2017-08-26T14:14:12.293Z,28.10
2017-08-26T14:16:40.668Z,28.20
2017-08-26T14:19:09.035Z,28.30
2017-08-26T14:21:37.398Z,28.40
2017-08-26T14:24:05.754Z,28.40
2017-08-26T14:26:34.110Z,28.30
2017-08-26T14:29:02.466Z,28.30
2017-08-26T14:31:30.862Z,28.40
2017-08-26T14:33:59.227Z,28.30
2017-08-26T14:36:28.364Z,28.50
2017-08-26T14:38:56.718Z,28.50
2017-08-26T14:41:25.088Z,28.60
2017-08-26T14:43:53.447Z,28.70
2017-08-26T14:46:21.803Z,28.70
2017-08-26T14:48:50.169Z,28.60
2017-08-26T14:51:18.526Z,28.70
2017-08-26T14:53:46.881Z,28.80
2017-08-26T14:56:15.253Z,28.90
2017-08-26T14:58:43.610Z,29.00
2017-08-26T15:01:11.979Z,28.90
2017-08-26T15:03:40.339Z,28.90
2017-08-26T15:06:08.749Z,28.70
2017-08-26T15:08:37.124Z,28.60
2017-08-26T15:11:05.541Z,28.50
2017-08-26T15:13:33.900Z,28.50
2017-08-26T15:16:02.261Z,28.50
2017-08-26T15:18:30.623Z,28.60
2017-08-26T15:20:58.979Z,28.60
2017-08-26T15:23:27.342Z,28.40
2017-08-26T15:25:55.719Z,28.30
2017-08-26T15:28:24.079Z,28.20
2017-08-26T15:30:52.434Z,28.00
2017-08-26T15:33:21.554Z,28.20
2017-08-26T15:35:49.913Z,28.10
2017-08-26T15:38:18.284Z,28.20
2017-08-26T15:40:46.826Z,28.10
2017-08-26T15:43:15.247Z,28.10
2017-08-26T15:45:44.499Z,28.10
2017-08-26T15:48:12.845Z,28.10
2017-08-26T15:50:41.249Z,28.10
2017-08-26T15:53:09.606Z,28.20
2017-08-26T15:55:37.965Z,28.10
2017-08-26T15:58:06.336Z,28.20
2017-08-26T16:00:34.755Z,28.10
2017-08-26T16:03:03.115Z,28.20
2017-08-26T16:05:31.581Z,28.00
2017-08-26T16:07:59.939Z,27.90
2017-08-26T16:10:28.304Z,27.70
2017-08-26T16:12:56.659Z,27.60
2017-08-26T16:15:25.262Z,27.70
2017-08-26T16:17:53.617Z,27.80
2017-08-26T16:20:21.978Z,27.90
2017-08-26T16:22:50.355Z,27.80
2017-08-26T16:25:18.719Z,27.80
2017-08-26T16:27:47.074Z,27.80
2017-08-26T16:30:15.448Z,27.90
2017-08-26T16:32:43.809Z,27.80
2017-08-26T16:35:12.179Z,27.80
2017-08-26T16:37:40.358Z,27.70
2017-08-26T16:40:09.493Z,27.60
2017-08-26T16:42:37.862Z,27.60
2017-08-26T16:45:06.227Z,27.60
2017-08-26T16:47:34.610Z,27.50
2017-08-26T16:50:03.044Z,27.40
2017-08-26T16:52:32.407Z,27.10
2017-08-26T16:55:00.762Z,27.10
2017-08-26T16:57:29.244Z,27.00
2017-08-26T16:59:57.594Z,26.90
2017-08-26T17:02:25.956Z,26.70
2017-08-26T17:04:54.327Z,26.50
2017-08-26T17:07:23.442Z,26.50
2017-08-26T17:09:51.832Z,26.50
2017-08-26T17:12:20.181Z,26.40
2017-08-26T17:14:48.625Z,26.40
2017-08-26T17:17:16.819Z,26.30
2017-08-26T17:19:45.184Z,26.20
2017-08-26T17:22:13.538Z,26.10
2017-08-26T17:24:41.984Z,25.90
2017-08-26T17:27:10.463Z,25.90
2017-08-26T17:29:38.809Z,25.80
2017-08-26T17:32:07.180Z,25.80
2017-08-26T17:34:35.539Z,25.70
2017-08-26T17:37:04.095Z,25.70
2017-08-26T17:39:32.466Z,25.60
2017-08-26T17:42:00.921Z,25.50
2017-08-26T17:44:29.299Z,25.50
2017-08-26T17:46:57.738Z,25.50
2017-08-26T17:49:26.316Z,25.50
2017-08-26T17:51:54.683Z,25.50
2017-08-26T17:54:23.055Z,25.40
2017-08-26T17:56:51.483Z,25.30
2017-08-26T17:59:19.851Z,25.20
2017-08-26T18:01:48.240Z,25.10
2017-08-26T18:04:16.609Z,25.10
2017-08-26T18:06:44.960Z,25.00
2017-08-26T18:09:13.423Z,25.00
2017-08-26T18:11:41.799Z,25.00
2017-08-26T18:14:10.174Z,24.80
2017-08-26T18:16:38.526Z,24.80
2017-08-26T18:19:06.902Z,24.70
2017-08-26T18:21:35.266Z,24.60
2017-08-26T18:24:03.635Z,24.40
2017-08-26T18:26:31.999Z,24.30
2017-08-26T18:29:00.371Z,24.10
2017-08-26T18:31:28.721Z,24.00
2017-08-26T18:33:57.221Z,23.90
2017-08-26T18:36:25.653Z,23.80
2017-08-26T18:38:54.019Z,23.80
2017-08-26T18:41:22.630Z,23.70
2017-08-26T18:43:50.985Z,23.60
2017-08-26T18:46:19.346Z,23.50
2017-08-26T18:48:47.708Z,23.40
2017-08-26T18:51:16.160Z,23.40
2017-08-26T18:53:44.505Z,23.30
2017-08-26T18:56:13.829Z,23.20
2017-08-26T18:58:42.313Z,23.20
2017-08-26T19:01:10.868Z,23.20
2017-08-26T19:03:39.236Z,23.10
2017-08-26T19:06:08.572Z,23.00
2017-08-26T19:08:37.102Z,23.00
2017-08-26T19:11:05.474Z,23.00
2017-08-26T19:13:34.304Z,22.90
2017-08-26T19:16:02.658Z,22.90
2017-08-26T19:18:31.023Z,22.90
2017-08-26T19:20:59.391Z,22.80
2017-08-26T19:23:27.765Z,22.80
2017-08-26T19:25:57.104Z,22.70
2017-08-26T19:28:25.450Z,22.70
2017-08-26T19:30:53.825Z,22.70
2017-08-26T19:33:22.234Z,22.70
2017-08-26T19:35:50.609Z,22.60
2017-08-26T19:38:18.983Z,22.60
2017-08-26T19:40:47.461Z,22.60
2017-08-26T19:43:15.909Z,22.60
2017-08-26T19:45:44.277Z,22.60
2017-08-26T19:48:12.643Z,22.60
2017-08-26T19:50:40.786Z,22.60
2017-08-26T19:53:09.154Z,22.60
2017-08-26T19:55:37.526Z,22.50
2017-08-26T19:58:05.907Z,22.50
2017-08-26T20:00:34.466Z,22.40
2017-08-26T20:03:02.893Z,22.40
2017-08-26T20:05:31.523Z,22.30
2017-08-26T20:07:59.895Z,22.30
2017-08-26T20:10:28.054Z,22.20
2017-08-26T20:12:56.439Z,22.20
2017-08-26T20:15:24.623Z,22.20
2017-08-26T20:17:53.000Z,22.10
2017-08-26T20:20:21.376Z,22.10
2017-08-26T20:22:49.849Z,22.00
2017-08-26T20:25:18.294Z,22.00
2017-08-26T20:27:46.659Z,22.00
2017-08-26T20:30:15.041Z,22.00
2017-08-26T20:32:44.112Z,21.90
2017-08-26T20:35:12.480Z,21.90
2017-08-26T20:37:41.101Z,21.90
2017-08-26T20:40:09.462Z,21.90
2017-08-26T20:42:38.017Z,21.80
2017-08-26T20:45:06.375Z,21.80
2017-08-26T20:47:34.742Z,21.70
2017-08-26T20:50:03.111Z,21.70
2017-08-26T20:52:31.583Z,21.70
2017-08-26T20:54:59.763Z,21.60
2017-08-26T20:57:27.958Z,21.60
2017-08-26T20:59:56.131Z,21.50
2017-08-26T21:02:24.342Z,21.50
2017-08-26T21:04:52.749Z,21.50
2017-08-26T21:07:21.131Z,21.50
2017-08-26T21:09:49.492Z,21.50
2017-08-26T21:12:18.295Z,21.50
2017-08-26T21:14:46.903Z,21.40
2017-08-26T21:17:15.353Z,21.40
2017-08-26T21:19:43.935Z,21.30
2017-08-26T21:22:12.326Z,21.30
2017-08-26T21:24:40.686Z,21.30
2017-08-26T21:27:09.150Z,21.30
2017-08-26T21:29:37.590Z,21.30
2017-08-26T21:32:06.212Z,21.20
2017-08-26T21:34:34.574Z,21.20
2017-08-26T21:37:02.961Z,21.20
2017-08-26T21:39:31.326Z,21.20
2017-08-26T21:41:59.697Z,21.10
2017-08-26T21:44:28.062Z,21.10
2017-08-26T21:46:56.416Z,21.10
2017-08-26T21:49:24.796Z,21.10
2017-08-26T21:51:53.147Z,21.10
2017-08-26T21:54:21.519Z,21.10
2017-08-26T21:56:49.885Z,21.10
2017-08-26T21:59:18.246Z,21.00
2017-08-26T22:01:46.627Z,21.00
2017-08-26T22:04:14.989Z,21.00
2017-08-26T22:06:43.373Z,20.90
2017-08-26T22:09:11.732Z,20.90
2017-08-26T22:11:40.111Z,20.90
2017-08-26T22:14:08.296Z,20.90
2017-08-26T22:16:36.880Z,20.80
2017-08-26T22:19:05.221Z,20.80
2017-08-26T22:21:33.587Z,20.80
2017-08-26T22:24:01.997Z,20.80
2017-08-26T22:26:30.476Z,20.80
2017-08-26T22:28:58.929Z,20.70
2017-08-26T22:31:27.277Z,20.80
2017-08-26T22:33:55.637Z,20.70
2017-08-26T22:36:24.011Z,20.70
2017-08-26T22:38:52.388Z,20.70
2017-08-26T22:41:20.751Z,20.70
2017-08-26T22:43:49.167Z,20.70
2017-08-26T22:46:17.573Z,20.70
2017-08-26T22:48:45.971Z,20.70
2017-08-26T22:51:14.553Z,20.70
2017-08-26T22:53:42.926Z,20.70
2017-08-26T22:56:11.166Z,20.70
2017-08-26T22:58:39.669Z,20.70
2017-08-26T23:01:08.043Z,20.60
2017-08-26T23:03:36.727Z,20.60
2017-08-26T23:06:05.171Z,20.60
2017-08-26T23:08:33.577Z,20.50
2017-08-26T23:11:01.925Z,20.50
2017-08-26T23:13:30.281Z,20.40
2017-08-26T23:15:58.659Z,20.50
2017-08-26T23:18:27.026Z,20.40
2017-08-26T23:20:55.605Z,20.40
2017-08-26T23:23:24.039Z,20.40
2017-08-26T23:25:52.411Z,20.40
2017-08-26T23:28:20.770Z,20.40
2017-08-26T23:30:49.131Z,20.40
2017-08-26T23:33:17.539Z,20.40
2017-08-26T23:35:45.920Z,20.40
2017-08-26T23:38:14.598Z,20.40
2017-08-26T23:40:42.970Z,20.30
2017-08-26T23:43:11.318Z,20.30
2017-08-26T23:45:39.830Z,20.30
2017-08-26T23:48:08.182Z,20.20
2017-08-26T23:50:36.581Z,20.20
2017-08-26T23:53:04.956Z,20.20
2017-08-26T23:55:33.312Z,20.20
2017-08-26T23:58:01.665Z,20.20
